createdAt,value
2022-11-28T00:00:31.611Z,91320.38
2022-11-28T00:01:52.810Z,91316.56
2022-11-28T00:03:13.841Z,91321.78
2022-11-28T00:04:34.825Z,91317.34
2022-11-28T00:05:56.182Z,91321.47
2022-11-28T00:07:17.298Z,91319.56
2022-11-28T00:08:38.634Z,91322.25
2022-11-28T00:09:59.753Z,91321.94
2022-11-28T00:11:21.162Z,91324.47
2022-11-28T00:12:42.288Z,91321.75
2022-11-28T00:14:03.606Z,91321.94
2022-11-28T00:15:24.465Z,91319.56
2022-11-28T00:16:46.754Z,91321.31
2022-11-28T00:18:07.662Z,91321.63
2022-11-28T00:19:29.322Z,91312.00
2022-11-28T00:20:50.493Z,91314.09
2022-11-28T00:22:11.779Z,91317.75
2022-11-28T00:23:33.965Z,91322.03
2022-11-28T00:24:55.865Z,91310.63
2022-11-28T00:26:26.006Z,91308.28
2022-11-28T00:27:49.698Z,91312.53
2022-11-28T00:29:11.632Z,91309.22
2022-11-28T00:30:37.091Z,91315.25
2022-11-28T00:31:58.127Z,91309.56
2022-11-28T00:33:19.308Z,91309.56
2022-11-28T00:34:40.715Z,91315.59
2022-11-28T00:36:05.880Z,91317.50
2022-11-28T00:37:27.052Z,91314.78
2022-11-28T00:38:48.973Z,91312.09
2022-11-28T00:40:10.253Z,91308.78
2022-11-28T00:41:34.023Z,91308.59
2022-11-28T00:42:55.099Z,91312.53
2022-11-28T00:44:16.318Z,91313.34
2022-11-28T00:45:37.459Z,91309.84
2022-11-28T00:46:58.557Z,91302.44
2022-11-28T00:48:19.679Z,91307.94
2022-11-28T00:49:41.285Z,91311.25
2022-11-28T00:51:15.497Z,91305.41
2022-11-28T00:52:36.424Z,91303.03
2022-11-28T00:53:59.695Z,91301.94
2022-11-28T00:55:20.847Z,91307.63
2022-11-28T00:56:41.978Z,91303.34
2022-11-28T00:58:03.374Z,91299.53
2022-11-28T00:59:24.458Z,91296.84
2022-11-28T01:00:45.593Z,91307.41
2022-11-28T01:02:06.760Z,91303.91
2022-11-28T01:03:28.227Z,91302.34
2022-11-28T01:04:49.405Z,91298.06
2022-11-28T01:06:11.770Z,91301.38
2022-11-28T01:07:33.434Z,91297.28
2022-11-28T01:08:55.282Z,91298.69
2022-11-28T01:10:16.278Z,91299.66
2022-11-28T01:11:39.648Z,91296.94
2022-11-28T01:13:00.387Z,91297.41
2022-11-28T01:14:24.033Z,91287.91
2022-11-28T01:15:45.287Z,91294.56
2022-11-28T01:17:06.182Z,91288.38
2022-11-28T01:18:27.107Z,91288.19
2022-11-28T01:19:48.335Z,91290.91
2022-11-28T01:21:09.919Z,91291.03
2022-11-28T01:22:31.113Z,91288.50
2022-11-28T01:23:52.245Z,91282.47
2022-11-28T01:25:13.455Z,91288.16
2022-11-28T01:26:35.349Z,91278.22
2022-11-28T01:27:56.342Z,91279.34
2022-11-28T01:29:17.481Z,91278.56
2022-11-28T01:30:39.061Z,91269.88
2022-11-28T01:31:59.930Z,91282.19
2022-11-28T01:33:21.219Z,91272.84
2022-11-28T01:34:42.725Z,91276.94
2022-11-28T01:36:04.403Z,91269.09
2022-11-28T01:37:25.253Z,91266.38
2022-11-28T01:38:46.935Z,91268.28
2022-11-28T01:40:10.572Z,91264.38
2022-11-28T01:41:31.677Z,91267.84
2022-11-28T01:42:52.909Z,91269.69
2022-11-28T01:44:14.568Z,91262.44
2022-11-28T01:45:36.221Z,91269.25
2022-11-28T01:46:57.623Z,91266.22
2022-11-28T01:48:23.580Z,91261.75
2022-11-28T01:49:46.590Z,91263.19
2022-11-28T01:51:10.266Z,91263.81
2022-11-28T01:52:34.042Z,91254.47
2022-11-28T01:53:55.968Z,91257.97
2022-11-28T01:55:20.762Z,91254.13
2022-11-28T01:56:56.662Z,91255.25
2022-11-28T01:58:17.876Z,91250.72
2022-11-28T02:00:02.698Z,91244.53
2022-11-28T02:01:33.804Z,91248.78
2022-11-28T02:03:10.448Z,91251.63
2022-11-28T02:04:32.306Z,91247.88
2022-11-28T02:05:54.066Z,91248.06
2022-11-28T02:07:15.245Z,91247.25
2022-11-28T02:08:37.098Z,91250.13
2022-11-28T02:09:57.969Z,91243.34
2022-11-28T02:11:26.990Z,91245.69
2022-11-28T02:12:48.259Z,91242.72
2022-11-28T02:14:24.681Z,91240.03
2022-11-28T02:16:23.166Z,91238.28
2022-11-28T02:17:53.013Z,91234.97
2022-11-28T02:19:45.024Z,91237.50
2022-11-28T02:21:31.010Z,91234.97
2022-11-28T02:23:22.066Z,91235.91
2022-11-28T02:24:49.119Z,91232.44
2022-11-28T02:26:30.961Z,91231.66
2022-11-28T02:28:10.036Z,91233.56
2022-11-28T02:30:02.335Z,91228.16
2022-11-28T02:32:10.158Z,91228.16
2022-11-28T02:33:35.950Z,91221.53
2022-11-28T02:35:12.179Z,91222.47
2022-11-28T02:36:51.113Z,91225.78
2022-11-28T02:38:44.145Z,91229.91
2022-11-28T02:40:26.596Z,91230.50
2022-11-28T02:41:56.691Z,91225.97
2022-11-28T02:43:17.503Z,91223.44
2022-11-28T02:44:50.313Z,91229.28
2022-11-28T02:46:22.172Z,91218.69
2022-11-28T02:47:54.617Z,91220.25
2022-11-28T02:49:37.098Z,91217.59
2022-11-28T02:51:26.005Z,91221.06
2022-11-28T02:52:55.699Z,91225.19
2022-11-28T02:54:18.672Z,91225.00
2022-11-28T02:55:41.523Z,91224.88
2022-11-28T02:57:03.304Z,91222.66
2022-11-28T02:58:24.262Z,91220.13
2022-11-28T02:59:49.119Z,91224.06
2022-11-28T03:01:20.970Z,91222.47
2022-11-28T03:02:44.743Z,91218.53
2022-11-28T03:04:08.735Z,91215.53
2022-11-28T03:05:43.278Z,91222.78
2022-11-28T03:07:19.337Z,91222.97
2022-11-28T03:09:13.647Z,91220.44
2022-11-28T03:10:56.317Z,91217.91
2022-11-28T03:12:32.151Z,91211.44
2022-11-28T03:14:01.781Z,91215.38
2022-11-28T03:15:28.825Z,91217.59
2022-11-28T03:17:15.057Z,91215.34
2022-11-28T03:18:45.870Z,91216.47
2022-11-28T03:20:22.230Z,91211.22
2022-11-28T03:21:52.377Z,91210.63
2022-11-28T03:23:21.086Z,91210.94
2022-11-28T03:25:06.177Z,91214.09
2022-11-28T03:26:35.135Z,91210.16
2022-11-28T03:28:25.031Z,91208.25
2022-11-28T03:29:54.645Z,91206.97
2022-11-28T03:31:20.972Z,91207.13
2022-11-28T03:32:43.613Z,91210.28
2022-11-28T03:34:06.884Z,91212.38
2022-11-28T03:35:33.105Z,91216.91
2022-11-28T03:37:00.123Z,91216.91
2022-11-28T03:38:36.378Z,91215.34
2022-11-28T03:40:05.246Z,91216.47
2022-11-28T03:41:54.675Z,91213.16
2022-11-28T03:43:21.287Z,91218.38
2022-11-28T03:44:52.001Z,91215.38
2022-11-28T03:46:18.396Z,91208.75
2022-11-28T03:47:44.570Z,91216.50
2022-11-28T03:49:09.551Z,91213.97
2022-11-28T03:50:40.958Z,91213.38
2022-11-28T03:52:05.803Z,91215.88
2022-11-28T03:53:34.863Z,91212.75
2022-11-28T03:55:00.555Z,91216.34
2022-11-28T03:56:37.526Z,91216.34
2022-11-28T03:58:09.762Z,91215.53
2022-11-28T03:59:49.423Z,91214.94
2022-11-28T04:01:25.825Z,91220.00
2022-11-28T04:03:03.861Z,91219.38
2022-11-28T04:04:50.872Z,91223.38
2022-11-28T04:06:24.127Z,91223.06
2022-11-28T04:07:47.959Z,91222.28
2022-11-28T04:09:18.122Z,91221.50
2022-11-28T04:10:44.584Z,91224.19
2022-11-28T04:12:34.992Z,91223.41
2022-11-28T04:14:06.867Z,91218.34
2022-11-28T04:15:56.441Z,91219.31
2022-11-28T04:17:32.622Z,91216.78
2022-11-28T04:19:24.442Z,91222.63
2022-11-28T04:20:49.623Z,91223.59
2022-11-28T04:22:31.784Z,91231.16
2022-11-28T04:23:57.013Z,91228.66
2022-11-28T04:25:21.688Z,91228.81
2022-11-28T04:26:51.817Z,91226.13
2022-11-28T04:28:18.649Z,91231.00
2022-11-28T04:29:46.273Z,91231.78
2022-11-28T04:31:10.043Z,91235.09
2022-11-28T04:32:36.568Z,91231.44
2022-11-28T04:34:02.232Z,91233.19
2022-11-28T04:35:31.459Z,91233.03
2022-11-28T04:36:54.349Z,91237.91
2022-11-28T04:38:16.310Z,91238.69
2022-11-28T04:39:40.857Z,91228.91
2022-11-28T04:41:10.685Z,91233.19
2022-11-28T04:42:42.472Z,91229.06
2022-11-28T04:44:13.310Z,91226.19
2022-11-28T04:45:46.655Z,91231.69
2022-11-28T04:47:08.305Z,91234.22
2022-11-28T04:48:34.111Z,91238.66
2022-11-28T04:49:55.639Z,91240.06
2022-11-28T04:51:32.270Z,91236.56
2022-11-28T04:53:10.073Z,91235.31
2022-11-28T04:54:31.211Z,91232.44
2022-11-28T04:56:01.717Z,91225.41
2022-11-28T04:57:36.745Z,91223.94
2022-11-28T04:58:58.668Z,91229.94
2022-11-28T05:00:21.626Z,91226.63
2022-11-28T05:01:46.816Z,91230.09
2022-11-28T05:03:09.817Z,91228.38
2022-11-28T05:04:31.182Z,91230.38
2022-11-28T05:05:52.319Z,91234.66
2022-11-28T05:07:14.088Z,91228.03
2022-11-28T05:08:35.258Z,91232.78
2022-11-28T05:09:57.780Z,91232.44
2022-11-28T05:11:19.005Z,91236.34
2022-11-28T05:12:40.266Z,91235.56
2022-11-28T05:14:01.293Z,91239.06
2022-11-28T05:15:22.562Z,91239.84
2022-11-28T05:16:43.660Z,91240.63
2022-11-28T05:18:05.665Z,91235.13
2022-11-28T05:19:26.753Z,91248.41
2022-11-28T05:20:48.648Z,91240.69
2022-11-28T05:22:09.827Z,91237.09
2022-11-28T05:23:30.864Z,91241.53
2022-11-28T05:24:52.370Z,91244.84
2022-11-28T05:26:17.463Z,91240.75
2022-11-28T05:27:38.644Z,91239.00
2022-11-28T05:28:59.842Z,91239.16
2022-11-28T05:30:21.297Z,91236.47
2022-11-28T05:31:42.748Z,91243.09
2022-11-28T05:33:03.819Z,91238.22
2022-11-28T05:34:25.042Z,91242.66
2022-11-28T05:35:45.989Z,91239.47
2022-11-28T05:37:07.168Z,91248.94
2022-11-28T05:38:28.281Z,91247.38
2022-11-28T05:39:49.521Z,91253.38
2022-11-28T05:41:18.652Z,91247.38
2022-11-28T05:42:42.453Z,91239.16
2022-11-28T05:44:03.580Z,91239.34
2022-11-28T05:45:24.704Z,91248.81
2022-11-28T05:46:46.078Z,91243.31
2022-11-28T05:48:07.340Z,91244.88
2022-11-28T05:49:28.979Z,91246.34
2022-11-28T05:50:50.958Z,91251.75
2022-11-28T05:52:12.516Z,91241.75
2022-11-28T05:53:33.649Z,91240.84
2022-11-28T05:54:54.661Z,91243.50
2022-11-28T05:56:18.030Z,91240.97
2022-11-28T05:57:39.033Z,91231.81
2022-11-28T05:59:00.230Z,91239.41
2022-11-28T06:00:21.515Z,91237.03
2022-11-28T06:01:42.381Z,91248.91
2022-11-28T06:03:04.789Z,91244.81
2022-11-28T06:04:25.572Z,91245.41
2022-11-28T06:05:46.892Z,91246.81
2022-11-28T06:07:08.745Z,91247.94
2022-11-28T06:08:29.778Z,91252.69
2022-11-28T06:09:50.787Z,91245.72
2022-11-28T06:11:14.590Z,91242.59
2022-11-28T06:12:35.419Z,91237.34
2022-11-28T06:13:56.908Z,91244.59
2022-11-28T06:15:17.746Z,91236.41
2022-11-28T06:16:38.929Z,91248.25
2022-11-28T06:18:00.149Z,91241.63
2022-11-28T06:19:21.413Z,91244.78
2022-11-28T06:20:42.691Z,91243.66
2022-11-28T06:22:04.302Z,91245.22
2022-11-28T06:23:25.387Z,91237.47
2022-11-28T06:24:46.641Z,91245.50
2022-11-28T06:26:13.099Z,91245.00
2022-11-28T06:27:35.742Z,91241.00
2022-11-28T06:28:57.278Z,91242.09
2022-11-28T06:30:18.354Z,91243.50
2022-11-28T06:31:39.600Z,91246.03
2022-11-28T06:33:01.121Z,91243.00
2022-11-28T06:34:23.087Z,91243.00
2022-11-28T06:35:44.160Z,91241.22
2022-11-28T06:37:05.367Z,91247.31
2022-11-28T06:38:28.410Z,91241.75
2022-11-28T06:39:51.247Z,91241.09
2022-11-28T06:41:15.532Z,91237.25
2022-11-28T06:42:37.327Z,91238.03
2022-11-28T06:44:02.821Z,91233.09
2022-11-28T06:45:24.120Z,91232.41
2022-11-28T06:46:45.213Z,91233.19
2022-11-28T06:48:06.483Z,91235.38
2022-11-28T06:49:27.510Z,91230.06
2022-11-28T06:50:48.868Z,91228.63
2022-11-28T06:52:09.969Z,91232.19
2022-11-28T06:53:31.835Z,91225.63
2022-11-28T06:54:53.094Z,91230.63
2022-11-28T06:56:16.929Z,91225.22
2022-11-28T06:57:39.374Z,91232.47
2022-11-28T06:59:01.253Z,91230.03
2022-11-28T07:00:22.170Z,91234.31
2022-11-28T07:01:43.389Z,91225.41
2022-11-28T07:03:04.945Z,91227.56
2022-11-28T07:04:26.021Z,91230.28
2022-11-28T07:05:48.185Z,91227.75
2022-11-28T07:07:13.665Z,91227.06
2022-11-28T07:08:38.137Z,91228.91
2022-11-28T07:09:58.949Z,91234.94
2022-11-28T07:11:28.505Z,91229.00
2022-11-28T07:12:59.295Z,91228.53
2022-11-28T07:14:22.391Z,91229.78
2022-11-28T07:15:51.086Z,91224.94
2022-11-28T07:17:12.314Z,91224.41
2022-11-28T07:18:33.764Z,91221.78
2022-11-28T07:19:55.503Z,91217.06
2022-11-28T07:21:18.114Z,91216.09
2022-11-28T07:22:39.295Z,91217.44
2022-11-28T07:24:00.536Z,91212.63
2022-11-28T07:25:21.646Z,91208.94
2022-11-28T07:26:42.779Z,91214.13
2022-11-28T07:28:04.087Z,91209.28
2022-11-28T07:29:25.130Z,91212.38
2022-11-28T07:30:46.200Z,91204.28
2022-11-28T07:32:08.109Z,91203.38
2022-11-28T07:33:29.686Z,91204.75
2022-11-28T07:34:50.535Z,91201.78
2022-11-28T07:36:15.415Z,91210.63
2022-11-28T07:37:36.519Z,91213.66
2022-11-28T07:39:02.712Z,91209.97
2022-11-28T07:40:24.028Z,91206.63
2022-11-28T07:41:45.563Z,91210.94
2022-11-28T07:43:06.315Z,91207.00
2022-11-28T07:44:27.738Z,91210.91
2022-11-28T07:46:00.485Z,91213.81
2022-11-28T07:47:22.749Z,91210.44
2022-11-28T07:48:44.543Z,91212.69
2022-11-28T07:50:06.206Z,91213.88
2022-11-28T07:51:30.265Z,91209.00
2022-11-28T07:52:51.953Z,91217.97
2022-11-28T07:54:12.897Z,91219.53
2022-11-28T07:55:36.448Z,91224.31
2022-11-28T07:57:11.755Z,91212.41
2022-11-28T07:58:35.329Z,91204.44
2022-11-28T07:59:56.150Z,91209.53
2022-11-28T08:01:19.768Z,91211.28
2022-11-28T08:02:40.910Z,91216.50
2022-11-28T08:04:05.441Z,91208.28
2022-11-28T08:05:27.717Z,91214.75
2022-11-28T08:06:49.110Z,91211.78
2022-11-28T08:08:10.267Z,91217.16
2022-11-28T08:09:32.667Z,91209.53
2022-11-28T08:10:59.078Z,91205.66
2022-11-28T08:12:20.423Z,91205.31
2022-11-28T08:13:42.277Z,91212.75
2022-11-28T08:15:03.812Z,91206.09
2022-11-28T08:16:26.908Z,91207.13
2022-11-28T08:17:48.062Z,91208.91
2022-11-28T08:19:09.185Z,91211.44
2022-11-28T08:20:30.190Z,91212.59
2022-11-28T08:21:51.353Z,91212.47
2022-11-28T08:23:12.695Z,91206.53
2022-11-28T08:24:33.590Z,91212.50
2022-11-28T08:25:54.942Z,91212.66
2022-11-28T08:27:15.739Z,91201.97
2022-11-28T08:28:37.110Z,91212.22
2022-11-28T08:29:58.180Z,91207.56
2022-11-28T08:31:22.547Z,91204.41
2022-11-28T08:32:43.746Z,91201.69
2022-11-28T08:34:08.246Z,91196.66
2022-11-28T08:35:29.467Z,91209.78
2022-11-28T08:36:50.862Z,91204.56
2022-11-28T08:38:12.130Z,91207.50
2022-11-28T08:39:34.091Z,91211.22
2022-11-28T08:41:04.914Z,91204.94
2022-11-28T08:42:25.878Z,91197.38
2022-11-28T08:43:47.148Z,91197.56
2022-11-28T08:45:11.145Z,91201.75
2022-11-28T08:46:32.727Z,91201.81
2022-11-28T08:47:53.870Z,91197.72
2022-11-28T08:49:14.956Z,91192.66
2022-11-28T08:50:36.293Z,91194.44
2022-11-28T08:51:57.396Z,91187.03
2022-11-28T08:53:18.800Z,91189.75
2022-11-28T08:54:41.098Z,91185.66
2022-11-28T08:56:02.254Z,91185.44
2022-11-28T08:57:23.466Z,91184.66
2022-11-28T08:58:45.134Z,91181.31
2022-11-28T09:00:08.718Z,91179.34
2022-11-28T09:01:31.024Z,91174.84
2022-11-28T09:02:52.471Z,91179.97
2022-11-28T09:04:13.459Z,91175.44
2022-11-28T09:05:34.893Z,91171.72
2022-11-28T09:06:55.939Z,91176.22
2022-11-28T09:08:18.802Z,91173.69
2022-11-28T09:09:39.961Z,91170.72
2022-11-28T09:11:01.157Z,91169.19
2022-11-28T09:12:22.530Z,91171.13
2022-11-28T09:13:43.845Z,91171.72
2022-11-28T09:15:05.667Z,91174.47
2022-11-28T09:16:26.931Z,91170.72
2022-11-28T09:17:48.442Z,91164.06
2022-11-28T09:19:10.825Z,91164.06
2022-11-28T09:20:32.910Z,91169.16
2022-11-28T09:21:57.671Z,91169.53
2022-11-28T09:23:19.180Z,91162.28
2022-11-28T09:24:40.272Z,91161.31
2022-11-28T09:26:01.278Z,91157.03
2022-11-28T09:27:22.551Z,91155.44
2022-11-28T09:28:44.309Z,91156.81
2022-11-28T09:30:06.284Z,91154.09
2022-11-28T09:31:27.386Z,91156.03
2022-11-28T09:32:50.054Z,91148.41
2022-11-28T09:34:11.279Z,91146.25
2022-11-28T09:35:32.389Z,91143.88
2022-11-28T09:36:53.509Z,91141.72
2022-11-28T09:38:14.612Z,91143.50
2022-11-28T09:39:57.039Z,91140.94
2022-11-28T09:41:43.245Z,91131.91
2022-11-28T09:43:15.336Z,91129.00
2022-11-28T09:44:45.529Z,91128.78
2022-11-28T09:46:13.616Z,91136.03
2022-11-28T09:47:37.354Z,91127.22
2022-11-28T09:49:02.733Z,91125.28
2022-11-28T09:50:34.620Z,91131.94
2022-11-28T09:52:15.522Z,91125.06
2022-11-28T09:53:50.825Z,91130.94
2022-11-28T09:55:14.666Z,91129.38
2022-11-28T09:56:36.053Z,91121.16
2022-11-28T09:57:58.015Z,91116.63
2022-11-28T09:59:29.029Z,91113.69
2022-11-28T10:01:23.043Z,91115.06
2022-11-28T10:02:58.554Z,91112.53
2022-11-28T10:04:48.426Z,91116.66
2022-11-28T10:06:26.050Z,91102.91
2022-11-28T10:07:54.624Z,91105.47
2022-11-28T10:09:35.191Z,91108.22
2022-11-28T10:11:04.683Z,91105.28
2022-11-28T10:12:28.793Z,91105.66
2022-11-28T10:14:26.858Z,91100.16
2022-11-28T10:16:12.373Z,91099.00
2022-11-28T10:17:44.419Z,91097.03
2022-11-28T10:19:20.645Z,91097.03
2022-11-28T10:20:59.310Z,91092.47
2022-11-28T10:22:31.435Z,91086.72
2022-11-28T10:23:58.470Z,91083.97
2022-11-28T10:25:36.258Z,91083.34
2022-11-28T10:27:04.424Z,91088.56
2022-11-28T10:28:41.557Z,91083.25
2022-11-28T10:30:12.630Z,91080.91
2022-11-28T10:31:44.783Z,91076.59
2022-11-28T10:33:14.663Z,91069.78
2022-11-28T10:34:45.492Z,91066.84
2022-11-28T10:36:07.125Z,91072.75
2022-11-28T10:37:32.948Z,91070.19
2022-11-28T10:38:53.868Z,91067.59
2022-11-28T10:40:36.070Z,91066.22
2022-11-28T10:42:14.149Z,91070.75
2022-11-28T10:43:46.768Z,91069.78
2022-11-28T10:45:41.737Z,91069.22
2022-11-28T10:47:24.624Z,91076.84
2022-11-28T10:48:47.982Z,91066.91
2022-11-28T10:50:46.393Z,91069.47
2022-11-28T10:53:05.844Z,91075.63
2022-11-28T10:54:55.068Z,91074.44
2022-11-28T10:56:51.140Z,91071.31
2022-11-28T10:58:44.550Z,91071.34
2022-11-28T11:00:14.057Z,91068.25
2022-11-28T11:01:43.761Z,91063.94
2022-11-28T11:03:13.776Z,91055.72
2022-11-28T11:04:38.010Z,91054.34
2022-11-28T11:06:00.163Z,91057.28
2022-11-28T11:07:29.691Z,91057.47
2022-11-28T11:08:50.985Z,91060.41
2022-11-28T11:10:22.962Z,91056.69
2022-11-28T11:11:55.311Z,91048.28
2022-11-28T11:13:23.682Z,91051.59
2022-11-28T11:14:44.860Z,91045.94
2022-11-28T11:16:11.675Z,91046.53
2022-11-28T11:17:36.641Z,91043.00
2022-11-28T11:18:58.039Z,91042.00
2022-11-28T11:20:27.440Z,91039.66
2022-11-28T11:22:02.432Z,91036.34
2022-11-28T11:23:23.365Z,91028.09
2022-11-28T11:24:44.880Z,91033.97
2022-11-28T11:26:10.189Z,91029.66
2022-11-28T11:27:32.142Z,91024.38
2022-11-28T11:28:53.385Z,91024.78
2022-11-28T11:30:18.371Z,91026.16
2022-11-28T11:31:44.347Z,91027.06
2022-11-28T11:33:12.398Z,91025.56
2022-11-28T11:34:44.894Z,91019.47
2022-11-28T11:36:24.258Z,91014.56
2022-11-28T11:37:45.275Z,91026.09
2022-11-28T11:39:08.173Z,91023.72
2022-11-28T11:40:29.643Z,91020.97
2022-11-28T11:42:10.569Z,91016.47
2022-11-28T11:43:35.816Z,91021.97
2022-11-28T11:44:57.887Z,91022.91
2022-11-28T11:46:18.744Z,91016.06
2022-11-28T11:47:42.763Z,91021.91
2022-11-28T11:49:03.751Z,91025.22
2022-11-28T11:50:27.767Z,91030.06
2022-11-28T11:51:56.865Z,91029.47
2022-11-28T11:53:19.262Z,91032.25
2022-11-28T11:54:52.555Z,91031.28
2022-11-28T11:56:14.979Z,91029.28
2022-11-28T11:57:42.664Z,91029.06
2022-11-28T11:59:13.756Z,91031.81
2022-11-28T12:00:42.166Z,91034.94
2022-11-28T12:02:19.617Z,91032.34
2022-11-28T12:03:52.339Z,91039.44
2022-11-28T12:05:21.724Z,91039.63
2022-11-28T12:06:48.885Z,91038.06
2022-11-28T12:08:25.701Z,91028.88
2022-11-28T12:09:49.635Z,91032.81
2022-11-28T12:11:18.809Z,91031.47
2022-11-28T12:12:42.037Z,91037.34
2022-11-28T12:14:35.357Z,91034.75
2022-11-28T12:16:17.806Z,91030.81
2022-11-28T12:17:50.061Z,91037.56
2022-11-28T12:19:17.820Z,91031.75
2022-11-28T12:20:53.933Z,91033.66
2022-11-28T12:22:50.609Z,91026.03
2022-11-28T12:24:21.051Z,91028.19
2022-11-28T12:26:00.099Z,91022.72
2022-11-28T12:27:33.292Z,91025.25
2022-11-28T12:29:13.060Z,91023.09
2022-11-28T12:30:57.623Z,91021.94
2022-11-28T12:32:32.589Z,91020.19
2022-11-28T12:34:30.732Z,91029.75
2022-11-28T12:36:46.606Z,91029.94
2022-11-28T12:38:26.148Z,91034.81
2022-11-28T12:40:05.893Z,91035.94
2022-11-28T12:41:38.293Z,91042.25
2022-11-28T12:43:05.178Z,91035.88
2022-11-28T12:45:04.131Z,91033.72
2022-11-28T12:46:24.994Z,91036.06
2022-11-28T12:48:01.781Z,91040.38
2022-11-28T12:49:22.642Z,91036.06
2022-11-28T12:50:47.985Z,91036.91
2022-11-28T12:52:21.375Z,91034.38
2022-11-28T12:54:28.847Z,91030.28
2022-11-28T12:55:55.743Z,91039.91
2022-11-28T12:59:19.131Z,91036.03
2022-11-28T13:01:25.276Z,91037.78
2022-11-28T13:03:14.451Z,91035.25
2022-11-28T13:04:53.052Z,91034.66
2022-11-28T13:06:36.795Z,91038.16
2022-11-28T13:08:25.768Z,91043.47
2022-11-28T13:10:12.893Z,91044.41
2022-11-28T13:11:49.890Z,91042.19
2022-11-28T13:13:19.570Z,91038.88
2022-11-28T13:15:03.132Z,91033.06
2022-11-28T13:16:47.745Z,91031.25
2022-11-28T13:18:34.815Z,91042.19
2022-11-28T13:20:21.491Z,91037.56
2022-11-28T13:22:04.839Z,91049.22
2022-11-28T13:23:36.623Z,91039.25
2022-11-28T13:25:35.311Z,91039.78
2022-11-28T13:27:33.319Z,91044.47
2022-11-28T13:29:27.924Z,91038.38
2022-11-28T13:31:24.631Z,91035.97
2022-11-28T13:32:48.030Z,91038.91
2022-11-28T13:34:15.912Z,91042.31
2022-11-28T13:35:46.523Z,91038.78
2022-11-28T13:39:13.273Z,91041.59
2022-11-28T13:40:49.930Z,91037.47
2022-11-28T13:44:42.187Z,91044.34
2022-11-28T13:46:04.521Z,91039.06
2022-11-28T13:47:29.865Z,91039.66
2022-11-28T13:49:13.774Z,91036.91
2022-11-28T13:50:39.399Z,91037.09
2022-11-28T13:52:18.728Z,91043.19
2022-11-28T13:53:41.380Z,91038.66
2022-11-28T13:55:02.581Z,91037.56
2022-11-28T13:56:27.145Z,91042.06
2022-11-28T13:57:48.964Z,91032.88
2022-11-28T13:59:19.570Z,91037.56
2022-11-28T14:00:40.727Z,91036.00
2022-11-28T14:02:05.264Z,91039.47
2022-11-28T14:03:28.723Z,91038.53
2022-11-28T14:04:50.539Z,91035.94
2022-11-28T14:06:14.819Z,91042.00
2022-11-28T14:07:36.649Z,91044.34
2022-11-28T14:09:18.285Z,91045.50
2022-11-28T14:11:07.380Z,91049.63
2022-11-28T14:12:51.788Z,91047.25
2022-11-28T14:14:27.714Z,91050.19
2022-11-28T14:16:15.462Z,91054.28
2022-11-28T14:17:49.424Z,91056.78
2022-11-28T14:19:44.728Z,91049.72
2022-11-28T14:21:20.247Z,91048.16
2022-11-28T14:22:46.770Z,91045.22
2022-11-28T14:24:33.962Z,91042.50
2022-11-28T14:25:56.531Z,91052.47
2022-11-28T14:27:28.273Z,91046.34
2022-11-28T14:28:49.880Z,91045.94
2022-11-28T14:30:26.557Z,91055.38
2022-11-28T14:32:13.786Z,91053.25
2022-11-28T14:33:42.622Z,91053.44
2022-11-28T14:35:06.725Z,91058.53
2022-11-28T14:36:33.786Z,91059.31
2022-11-28T14:37:55.598Z,91053.75
2022-11-28T14:39:17.145Z,91052.19
2022-11-28T14:40:59.676Z,91053.75
2022-11-28T14:42:59.079Z,91052.19
2022-11-28T14:44:45.545Z,91046.25
2022-11-28T14:46:16.059Z,91047.00
2022-11-28T14:47:42.858Z,91049.09
2022-11-28T14:49:17.079Z,91048.28
2022-11-28T14:50:38.098Z,91039.41
2022-11-28T14:52:41.598Z,91042.91
2022-11-28T14:54:04.665Z,91043.88
2022-11-28T14:55:26.100Z,91044.59
2022-11-28T14:56:47.186Z,91036.97
2022-11-28T14:58:16.543Z,91044.47
2022-11-28T14:59:42.267Z,91037.03
2022-11-28T15:01:16.555Z,91043.69
2022-11-28T15:02:52.847Z,91040.00
2022-11-28T15:04:45.047Z,91028.50
2022-11-28T15:06:23.560Z,91039.03
2022-11-28T15:07:59.786Z,91040.38
2022-11-28T15:09:21.304Z,91040.38
2022-11-28T15:10:57.805Z,91040.97
2022-11-28T15:12:26.585Z,91044.06
2022-11-28T15:13:48.708Z,91041.66
2022-11-28T15:15:13.915Z,91045.56
2022-11-28T15:16:41.092Z,91046.16
2022-11-28T15:18:06.475Z,91042.06
2022-11-28T15:19:43.241Z,91046.91
2022-11-28T15:21:11.611Z,91048.84
2022-11-28T15:22:43.725Z,91046.72
2022-11-28T15:24:16.304Z,91041.28
2022-11-28T15:25:38.153Z,91049.06
2022-11-28T15:27:21.518Z,91046.69
2022-11-28T15:28:43.645Z,91052.34
2022-11-28T15:30:26.756Z,91047.50
2022-11-28T15:31:50.365Z,91051.97
2022-11-28T15:33:13.204Z,91048.69
2022-11-28T15:34:37.413Z,91044.84
2022-11-28T15:36:11.177Z,91047.19
2022-11-28T15:37:34.728Z,91047.72
2022-11-28T15:38:57.692Z,91047.91
2022-11-28T15:40:31.628Z,91046.59
2022-11-28T15:41:52.894Z,91047.38
2022-11-28T15:43:14.818Z,91039.78
2022-11-28T15:44:37.794Z,91040.56
2022-11-28T15:46:02.730Z,91042.34
2022-11-28T15:47:24.628Z,91047.22
2022-11-28T15:48:52.466Z,91049.19
2022-11-28T15:50:17.905Z,91041.94
2022-11-28T15:51:39.136Z,91044.84
2022-11-28T15:53:03.558Z,91042.91
2022-11-28T15:54:42.258Z,91044.09
2022-11-28T15:56:13.734Z,91042.13
2022-11-28T15:57:35.134Z,91046.22
2022-11-28T15:58:56.470Z,91043.63
2022-11-28T16:00:21.933Z,91036.56
2022-11-28T16:01:42.986Z,91040.63
2022-11-28T16:03:07.369Z,91040.84
2022-11-28T16:04:30.792Z,91049.25
2022-11-28T16:05:54.351Z,91048.88
2022-11-28T16:07:16.292Z,91049.06
2022-11-28T16:08:49.193Z,91041.09
2022-11-28T16:10:48.773Z,91045.94
2022-11-28T16:12:14.370Z,91048.25
2022-11-28T16:13:38.317Z,91042.56
2022-11-28T16:15:04.801Z,91049.22
2022-11-28T16:16:29.968Z,91045.09
2022-11-28T16:17:54.158Z,91041.59
2022-11-28T16:19:28.310Z,91036.94
2022-11-28T16:20:49.617Z,91035.56
2022-11-28T16:22:17.239Z,91039.47
2022-11-28T16:23:38.577Z,91038.31
2022-11-28T16:25:23.418Z,91042.00
2022-11-28T16:26:54.305Z,91039.66
2022-11-28T16:28:33.979Z,91035.13
2022-11-28T16:29:55.327Z,91041.94
2022-11-28T16:31:23.837Z,91041.59
2022-11-28T16:32:45.049Z,91044.91
2022-11-28T16:34:12.187Z,91045.34
2022-11-28T16:35:41.710Z,91043.22
2022-11-28T16:37:11.932Z,91040.66
2022-11-28T16:38:33.350Z,91041.09
2022-11-28T16:40:13.230Z,91036.97
2022-11-28T16:41:34.409Z,91039.69
2022-11-28T16:42:56.608Z,91034.59
2022-11-28T16:44:22.321Z,91040.03
2022-11-28T16:45:43.369Z,91048.91
2022-11-28T16:47:04.218Z,91043.56
2022-11-28T16:48:28.761Z,91043.06
2022-11-28T16:50:16.404Z,91043.56
2022-11-28T16:51:40.004Z,91043.91
2022-11-28T16:53:02.605Z,91045.03
2022-11-28T16:54:30.249Z,91047.03
2022-11-28T16:55:51.533Z,91033.94
2022-11-28T16:57:17.341Z,91038.22
2022-11-28T16:58:38.153Z,91044.09
2022-11-28T16:59:59.776Z,91043.81
2022-11-28T17:01:21.739Z,91037.97
2022-11-28T17:02:42.945Z,91037.78
2022-11-28T17:04:04.802Z,91044.97
2022-11-28T17:05:25.815Z,91042.06
2022-11-28T17:06:47.074Z,91038.94
2022-11-28T17:08:08.440Z,91037.25
2022-11-28T17:09:34.008Z,91034.09
2022-11-28T17:10:58.175Z,91037.84
2022-11-28T17:12:34.252Z,91034.72
2022-11-28T17:13:57.654Z,91040.81
2022-11-28T17:15:21.986Z,91041.41
2022-11-28T17:16:43.162Z,91040.25
2022-11-28T17:18:04.213Z,91033.25
2022-11-28T17:19:29.277Z,91042.47